createdAt,value
2023-01-08T00:01:13.000Z,6.36
2023-01-08T00:03:59.560Z,6.45
2023-01-08T00:06:46.203Z,6.28
2023-01-08T00:09:32.626Z,6.53
2023-01-08T00:12:19.483Z,6.73
2023-01-08T00:15:06.626Z,6.56
2023-01-08T00:17:52.889Z,6.62
2023-01-08T00:20:46.644Z,6.64
2023-01-08T00:23:34.089Z,6.67
2023-01-08T00:26:20.683Z,6.91
2023-01-08T00:29:09.062Z,6.67
2023-01-08T00:31:55.410Z,6.83
2023-01-08T00:34:41.780Z,6.68
2023-01-08T00:37:29.017Z,6.60
2023-01-08T00:40:15.410Z,6.51
2023-01-08T00:43:01.739Z,6.39
2023-01-08T00:45:48.468Z,6.27
2023-01-08T00:48:39.004Z,6.11
2023-01-08T00:51:26.320Z,5.95
2023-01-08T00:54:12.611Z,5.95
2023-01-08T00:56:59.131Z,6.02
2023-01-08T00:59:46.075Z,6.13
2023-01-08T01:02:34.420Z,6.31
2023-01-08T01:05:24.767Z,6.20
2023-01-08T01:08:11.377Z,6.07
2023-01-08T01:10:57.781Z,5.96
2023-01-08T01:13:44.328Z,5.90
2023-01-08T01:16:30.862Z,5.91
2023-01-08T01:19:18.172Z,5.87
2023-01-08T01:22:05.139Z,5.77
2023-01-08T01:24:51.846Z,5.60
2023-01-08T01:27:38.528Z,5.57
2023-01-08T01:30:25.265Z,5.88
2023-01-08T01:33:11.960Z,5.65
2023-01-08T01:36:03.055Z,5.57
2023-01-08T01:38:51.685Z,5.49
2023-01-08T01:41:46.599Z,5.51
2023-01-08T01:44:42.079Z,5.65
2023-01-08T01:47:34.586Z,5.63
2023-01-08T01:50:35.656Z,5.67
2023-01-08T01:53:27.168Z,5.63
2023-01-08T01:56:13.714Z,5.98
2023-01-08T01:59:00.674Z,6.07
2023-01-08T02:01:47.514Z,6.12
2023-01-08T02:04:34.296Z,6.03
2023-01-08T02:07:36.335Z,6.11
2023-01-08T02:10:33.509Z,6.10
2023-01-08T02:13:31.665Z,6.05
2023-01-08T02:16:55.099Z,6.08
2023-01-08T02:20:00.021Z,6.06
2023-01-08T02:23:06.154Z,6.26
2023-01-08T02:26:16.937Z,6.25
2023-01-08T02:29:03.462Z,6.27
2023-01-08T02:31:50.001Z,6.22
2023-01-08T02:34:36.433Z,6.23
2023-01-08T02:37:23.504Z,6.15
2023-01-08T02:40:42.003Z,6.18
2023-01-08T02:43:41.051Z,6.33
2023-01-08T02:46:34.287Z,6.54
2023-01-08T02:49:24.430Z,6.77
2023-01-08T02:52:13.610Z,6.82
2023-01-08T02:55:03.001Z,7.02
2023-01-08T02:57:50.589Z,7.21
2023-01-08T03:00:37.694Z,7.34
2023-01-08T03:03:27.239Z,7.15
2023-01-08T03:06:16.895Z,7.22
2023-01-08T03:09:03.812Z,7.18
2023-01-08T03:11:54.267Z,7.40
2023-01-08T03:14:54.431Z,7.46
2023-01-08T03:17:46.564Z,7.45
2023-01-08T03:20:35.886Z,7.39
2023-01-08T03:23:23.247Z,7.41
2023-01-08T03:26:11.029Z,7.44
2023-01-08T03:28:57.951Z,7.29
2023-01-08T03:31:46.630Z,7.31
2023-01-08T03:34:37.704Z,7.30
2023-01-08T03:37:32.900Z,7.17
2023-01-08T03:40:35.300Z,7.20
2023-01-08T03:43:21.668Z,7.00
2023-01-08T03:46:15.949Z,6.90
2023-01-08T03:49:05.389Z,6.99
2023-01-08T03:51:52.183Z,6.74
2023-01-08T03:54:38.739Z,6.93
2023-01-08T03:57:25.685Z,6.99
2023-01-08T04:00:13.080Z,6.83
2023-01-08T04:02:59.440Z,6.70
2023-01-08T04:05:45.857Z,6.88
2023-01-08T04:08:32.797Z,6.98
2023-01-08T04:11:19.994Z,6.99
2023-01-08T04:14:06.480Z,6.95
2023-01-08T04:16:53.052Z,7.12
2023-01-08T04:19:39.435Z,7.10
2023-01-08T04:22:26.143Z,7.23
2023-01-08T04:25:12.648Z,7.05
2023-01-08T04:27:58.905Z,7.07
2023-01-08T04:30:45.496Z,7.07
2023-01-08T04:33:32.171Z,7.23
2023-01-08T04:36:18.793Z,7.34
2023-01-08T04:39:05.557Z,7.35
2023-01-08T04:41:51.827Z,7.51
2023-01-08T04:44:38.076Z,7.67
2023-01-08T04:47:24.368Z,7.77
2023-01-08T04:50:11.348Z,7.70
2023-01-08T04:52:59.283Z,7.80
2023-01-08T04:55:45.678Z,7.99
2023-01-08T04:58:34.062Z,7.99
2023-01-08T05:01:23.336Z,8.10
2023-01-08T05:04:11.013Z,8.02
2023-01-08T05:06:57.705Z,8.04
2023-01-08T05:09:44.079Z,8.05
2023-01-08T05:12:30.547Z,7.98
2023-01-08T05:15:21.931Z,7.80
2023-01-08T05:18:10.134Z,7.87
2023-01-08T05:21:01.313Z,7.87
2023-01-08T05:23:48.064Z,7.99
2023-01-08T05:26:34.533Z,8.00
2023-01-08T05:29:21.019Z,7.83
2023-01-08T05:32:15.619Z,7.73
2023-01-08T05:35:02.567Z,7.78
2023-01-08T05:37:49.074Z,7.69
2023-01-08T05:40:35.881Z,7.57
2023-01-08T05:43:22.330Z,7.48
2023-01-08T05:46:08.943Z,7.48
2023-01-08T05:48:55.500Z,7.41
2023-01-08T05:51:42.017Z,7.46
2023-01-08T05:54:28.378Z,7.38
2023-01-08T05:57:14.911Z,7.43
2023-01-08T06:00:01.278Z,7.53
2023-01-08T06:02:58.184Z,7.63
2023-01-08T06:05:44.883Z,7.52
2023-01-08T06:08:31.990Z,7.78
2023-01-08T06:11:18.300Z,8.04
2023-01-08T06:14:04.527Z,8.03
2023-01-08T06:16:51.465Z,8.03
2023-01-08T06:19:39.368Z,8.14
2023-01-08T06:22:26.573Z,8.29
2023-01-08T06:25:13.276Z,8.34
2023-01-08T06:27:59.478Z,8.37
2023-01-08T06:30:45.873Z,8.36
2023-01-08T06:33:32.517Z,8.37
2023-01-08T06:36:19.233Z,8.41
2023-01-08T06:39:07.495Z,8.35
2023-01-08T06:41:53.902Z,8.38
2023-01-08T06:44:40.408Z,8.37
2023-01-08T06:47:28.653Z,8.51
2023-01-08T06:50:14.989Z,8.48
2023-01-08T06:53:01.726Z,8.52
2023-01-08T06:55:48.539Z,8.45
2023-01-08T06:58:35.351Z,8.57
2023-01-08T07:01:23.033Z,8.55
2023-01-08T07:04:09.811Z,8.43
2023-01-08T07:06:56.619Z,8.44
2023-01-08T07:09:43.323Z,8.50
2023-01-08T07:12:29.561Z,8.41
2023-01-08T07:15:19.339Z,8.48
2023-01-08T07:18:09.633Z,8.41
2023-01-08T07:20:56.266Z,8.44
2023-01-08T07:23:42.810Z,8.66
2023-01-08T07:26:29.542Z,8.69
2023-01-08T07:29:16.069Z,8.68
2023-01-08T07:32:03.104Z,8.53
2023-01-08T07:34:49.335Z,8.39
2023-01-08T07:37:40.009Z,8.44
2023-01-08T07:40:26.468Z,8.50
2023-01-08T07:43:13.310Z,8.52
2023-01-08T07:46:02.770Z,8.46
2023-01-08T07:48:49.516Z,8.42
2023-01-08T07:51:35.987Z,8.48
2023-01-08T07:54:22.613Z,8.68
2023-01-08T07:57:09.400Z,8.79
2023-01-08T07:59:55.939Z,8.80
2023-01-08T08:02:42.545Z,8.76
2023-01-08T08:05:29.216Z,8.69
2023-01-08T08:08:15.726Z,8.60
2023-01-08T08:11:02.363Z,8.72
2023-01-08T08:13:52.608Z,8.73
2023-01-08T08:16:39.894Z,8.67
2023-01-08T08:19:27.147Z,8.64
2023-01-08T08:22:14.327Z,8.74
2023-01-08T08:25:00.768Z,8.70
2023-01-08T08:27:47.342Z,8.62
2023-01-08T08:30:35.157Z,8.65
2023-01-08T08:33:21.793Z,8.70
2023-01-08T08:36:09.062Z,8.77
2023-01-08T08:38:55.864Z,8.63
2023-01-08T08:41:42.578Z,8.78
2023-01-08T08:44:29.012Z,8.66
2023-01-08T08:47:15.661Z,8.68
2023-01-08T08:50:02.705Z,8.71
2023-01-08T08:52:49.374Z,8.92
2023-01-08T08:55:36.360Z,8.89
2023-01-08T08:58:22.917Z,8.85
2023-01-08T09:01:09.448Z,8.93
2023-01-08T09:03:56.191Z,8.94
2023-01-08T09:06:43.167Z,9.00
2023-01-08T09:09:29.874Z,9.06
2023-01-08T09:12:16.782Z,8.94
2023-01-08T09:15:04.245Z,9.03
2023-01-08T09:17:55.599Z,9.14
2023-01-08T09:20:41.822Z,9.14
2023-01-08T09:23:28.198Z,9.14
2023-01-08T09:26:14.870Z,9.15
2023-01-08T09:29:01.590Z,9.08
2023-01-08T09:31:48.252Z,9.06
2023-01-08T09:34:36.319Z,9.12
2023-01-08T09:37:23.354Z,9.19
2023-01-08T09:40:16.016Z,9.17
2023-01-08T09:43:06.058Z,9.34
2023-01-08T09:45:58.294Z,9.28
2023-01-08T09:49:12.699Z,9.30
2023-01-08T09:51:59.512Z,9.30
2023-01-08T09:54:45.988Z,9.27
2023-01-08T09:57:33.767Z,9.34
2023-01-08T10:00:32.401Z,9.33
2023-01-08T10:03:19.179Z,9.42
2023-01-08T10:06:13.917Z,9.42
2023-01-08T10:09:00.757Z,9.46
2023-01-08T10:11:48.975Z,9.44
2023-01-08T10:14:38.056Z,9.52
2023-01-08T10:17:27.573Z,9.52
2023-01-08T10:20:17.823Z,9.54
2023-01-08T10:23:12.336Z,9.49
2023-01-08T10:26:01.019Z,9.54
2023-01-08T10:28:47.612Z,9.58
2023-01-08T10:31:40.051Z,9.50
2023-01-08T10:34:51.043Z,9.61
2023-01-08T10:37:42.996Z,9.54
2023-01-08T10:40:47.150Z,9.48
2023-01-08T10:43:55.471Z,9.61
2023-01-08T10:46:45.251Z,9.67
2023-01-08T10:49:39.348Z,9.65
2023-01-08T10:52:34.352Z,9.73
2023-01-08T10:55:39.679Z,9.75
2023-01-08T10:58:29.313Z,9.79
2023-01-08T11:01:19.092Z,9.88
2023-01-08T11:04:08.035Z,9.74
2023-01-08T11:07:01.979Z,9.93
2023-01-08T11:09:52.273Z,9.92
2023-01-08T11:12:41.131Z,10.00
2023-01-08T11:15:37.903Z,10.04
2023-01-08T11:18:28.280Z,9.91
2023-01-08T11:21:24.827Z,9.95
2023-01-08T11:24:20.546Z,9.97
2023-01-08T11:27:15.936Z,10.09
2023-01-08T11:30:26.495Z,10.15
2023-01-08T11:33:20.003Z,10.33
2023-01-08T11:36:47.031Z,10.35
2023-01-08T11:39:35.153Z,10.38
2023-01-08T11:42:34.348Z,10.48
2023-01-08T11:45:32.474Z,10.46
2023-01-08T11:48:37.851Z,10.47
2023-01-08T11:51:46.833Z,10.46
2023-01-08T11:55:04.966Z,10.48
2023-01-08T11:58:24.372Z,10.43
2023-01-08T12:01:15.151Z,10.42
2023-01-08T12:04:19.604Z,10.72
2023-01-08T12:07:21.975Z,10.92
2023-01-08T12:10:23.719Z,11.01
2023-01-08T12:13:19.539Z,10.93
2023-01-08T12:16:19.386Z,11.03
2023-01-08T12:19:29.139Z,11.04
2023-01-08T12:22:34.176Z,11.12
2023-01-08T12:25:34.063Z,11.11
2023-01-08T12:28:35.708Z,11.08
2023-01-08T12:31:34.287Z,11.06
2023-01-08T12:34:37.091Z,11.02
2023-01-08T12:37:28.096Z,10.99
2023-01-08T12:40:20.320Z,11.06
2023-01-08T12:43:14.269Z,11.05
2023-01-08T12:46:02.510Z,10.99
2023-01-08T12:48:52.048Z,10.95
2023-01-08T12:51:38.593Z,10.89
2023-01-08T12:54:40.039Z,10.78
2023-01-08T12:57:40.313Z,10.73
2023-01-08T13:00:39.191Z,10.72
2023-01-08T13:03:28.348Z,10.60
2023-01-08T13:06:18.376Z,10.55
2023-01-08T13:09:05.066Z,10.57
2023-01-08T13:11:54.055Z,10.56
2023-01-08T13:14:48.258Z,10.61
2023-01-08T13:17:37.370Z,10.68
2023-01-08T13:20:32.063Z,10.76
2023-01-08T13:23:25.678Z,11.01
2023-01-08T13:26:35.614Z,11.19
2023-01-08T13:29:39.244Z,11.26
2023-01-08T13:32:34.882Z,11.32
2023-01-08T13:35:26.952Z,11.30
2023-01-08T13:38:17.025Z,11.38
2023-01-08T13:41:03.271Z,11.59
2023-01-08T13:44:11.939Z,11.67
2023-01-08T13:47:01.396Z,11.56
2023-01-08T13:49:53.048Z,11.37
2023-01-08T13:52:47.210Z,11.16
2023-01-08T13:55:39.327Z,10.86
2023-01-08T13:58:36.073Z,10.59
2023-01-08T14:01:23.544Z,10.52
2023-01-08T14:04:20.558Z,10.48
2023-01-08T14:07:14.707Z,10.50
2023-01-08T14:10:12.148Z,10.63
2023-01-08T14:13:08.728Z,10.77
2023-01-08T14:16:03.121Z,11.01
2023-01-08T14:18:50.379Z,11.01
2023-01-08T14:21:37.940Z,11.02
2023-01-08T14:24:26.125Z,11.00
2023-01-08T14:27:27.492Z,10.95
2023-01-08T14:30:16.914Z,10.98
2023-01-08T14:33:04.209Z,10.96
2023-01-08T14:35:51.825Z,10.93
2023-01-08T14:38:39.317Z,10.97
2023-01-08T14:41:58.323Z,10.88
2023-01-08T14:44:46.107Z,10.80
2023-01-08T14:48:00.425Z,10.83
2023-01-08T14:51:00.814Z,10.85
2023-01-08T14:53:53.644Z,10.79
2023-01-08T14:56:40.274Z,10.79
2023-01-08T14:59:30.052Z,10.67
2023-01-08T15:02:46.264Z,10.58
2023-01-08T15:06:01.413Z,10.38
2023-01-08T15:08:47.973Z,10.33
2023-01-08T15:11:49.268Z,10.23
2023-01-08T15:14:36.928Z,10.09
2023-01-08T15:17:28.552Z,10.04
2023-01-08T15:20:20.433Z,9.96
2023-01-08T15:23:07.000Z,9.94
2023-01-08T15:25:55.670Z,9.86
2023-01-08T15:28:51.186Z,9.92
2023-01-08T15:31:40.925Z,9.79
2023-01-08T15:34:27.578Z,9.73
2023-01-08T15:37:15.435Z,9.63
2023-01-08T15:40:02.226Z,9.39
2023-01-08T15:43:07.214Z,9.43
2023-01-08T15:45:53.699Z,9.34
2023-01-08T15:48:40.107Z,9.28
2023-01-08T15:51:29.868Z,9.36
2023-01-08T15:54:17.036Z,9.40
2023-01-08T15:57:03.695Z,9.47
2023-01-08T15:59:50.384Z,9.37
2023-01-08T16:02:47.448Z,9.31
2023-01-08T16:05:35.795Z,9.34
2023-01-08T16:08:22.713Z,9.25
2023-01-08T16:11:09.210Z,9.15
2023-01-08T16:13:55.671Z,9.11
2023-01-08T16:16:42.281Z,9.12
2023-01-08T16:19:30.275Z,9.16
2023-01-08T16:22:17.009Z,9.21
2023-01-08T16:25:05.034Z,9.14
2023-01-08T16:27:51.773Z,9.20
2023-01-08T16:30:39.284Z,9.09
2023-01-08T16:33:25.841Z,9.09
2023-01-08T16:36:12.541Z,9.15
2023-01-08T16:38:59.068Z,9.12
2023-01-08T16:41:47.605Z,8.99
2023-01-08T16:44:36.391Z,9.03
2023-01-08T16:47:22.964Z,9.09
2023-01-08T16:50:11.552Z,9.14
2023-01-08T16:52:57.985Z,9.11
2023-01-08T16:55:44.776Z,9.05
2023-01-08T16:58:32.063Z,9.04
2023-01-08T17:01:18.754Z,9.14
2023-01-08T17:04:05.704Z,9.06
2023-01-08T17:06:52.342Z,9.05
2023-01-08T17:09:39.194Z,9.05
2023-01-08T17:12:25.720Z,8.86
2023-01-08T17:15:12.161Z,9.08
2023-01-08T17:17:58.899Z,9.03
2023-01-08T17:20:52.498Z,8.98
2023-01-08T17:23:39.531Z,8.89
2023-01-08T17:26:26.176Z,8.84
2023-01-08T17:29:12.718Z,8.73
2023-01-08T17:31:59.283Z,8.56
2023-01-08T17:34:45.648Z,8.44
2023-01-08T17:37:33.502Z,8.43
2023-01-08T17:40:19.964Z,8.27
2023-01-08T17:43:07.978Z,8.26
2023-01-08T17:45:56.401Z,8.10
2023-01-08T17:48:45.044Z,7.91
2023-01-08T17:51:33.338Z,7.94
2023-01-08T17:54:20.115Z,8.20
2023-01-08T17:57:06.759Z,8.23
2023-01-08T17:59:53.243Z,8.43
2023-01-08T18:02:39.957Z,8.44
2023-01-08T18:05:26.756Z,8.40
2023-01-08T18:08:13.347Z,8.55
2023-01-08T18:11:06.691Z,8.54
2023-01-08T18:13:58.371Z,8.47
2023-01-08T18:16:45.567Z,8.61
2023-01-08T18:19:32.136Z,8.63
2023-01-08T18:22:20.422Z,8.66
2023-01-08T18:25:07.376Z,8.65
2023-01-08T18:27:54.191Z,8.72
2023-01-08T18:30:42.800Z,8.65
2023-01-08T18:33:29.324Z,8.68
2023-01-08T18:36:15.939Z,8.77
2023-01-08T18:39:03.313Z,8.59
2023-01-08T18:42:08.588Z,8.64
2023-01-08T18:44:57.504Z,8.57
2023-01-08T18:47:44.066Z,8.58
2023-01-08T18:50:30.876Z,8.55
2023-01-08T18:53:17.063Z,8.49
2023-01-08T18:56:04.020Z,8.43
2023-01-08T18:58:53.629Z,8.41
2023-01-08T19:01:40.115Z,8.55
2023-01-08T19:04:26.966Z,8.38
2023-01-08T19:07:13.912Z,8.41
2023-01-08T19:10:01.717Z,8.36
2023-01-08T19:12:51.250Z,8.33
2023-01-08T19:15:39.157Z,8.31
2023-01-08T19:18:38.375Z,8.27
2023-01-08T19:21:25.041Z,8.54
2023-01-08T19:24:12.719Z,8.47
2023-01-08T19:26:59.343Z,8.41
2023-01-08T19:29:47.004Z,8.40
2023-01-08T19:32:33.404Z,8.43
2023-01-08T19:35:25.489Z,8.40
2023-01-08T19:38:12.013Z,8.62
2023-01-08T19:41:00.293Z,8.69
2023-01-08T19:43:47.061Z,8.65
2023-01-08T19:46:33.887Z,8.65
2023-01-08T19:49:20.379Z,8.70
2023-01-08T19:52:06.545Z,8.69
2023-01-08T19:54:55.186Z,8.70
2023-01-08T19:57:41.529Z,8.70
2023-01-08T20:00:28.111Z,8.69
2023-01-08T20:03:17.439Z,8.71
2023-01-08T20:06:12.478Z,8.72
2023-01-08T20:09:00.167Z,8.57
2023-01-08T20:11:46.644Z,8.58
2023-01-08T20:14:34.306Z,8.55
2023-01-08T20:17:25.204Z,8.45
2023-01-08T20:20:12.275Z,8.45
2023-01-08T20:22:58.710Z,8.44
2023-01-08T20:25:46.140Z,8.32
2023-01-08T20:28:38.264Z,8.20
2023-01-08T20:31:29.516Z,8.23
2023-01-08T20:34:16.375Z,8.19
2023-01-08T20:37:06.308Z,8.07
2023-01-08T20:39:53.062Z,8.15
2023-01-08T20:42:45.709Z,7.96
2023-01-08T20:45:32.239Z,7.95
2023-01-08T20:48:19.198Z,7.80
2023-01-08T20:51:06.054Z,7.89
2023-01-08T20:53:52.436Z,7.88
2023-01-08T20:56:39.237Z,7.73
2023-01-08T20:59:26.810Z,7.85
2023-01-08T21:02:13.285Z,7.81
2023-01-08T21:05:02.697Z,7.74
2023-01-08T21:07:49.134Z,7.75
2023-01-08T21:10:35.953Z,7.67
2023-01-08T21:13:22.459Z,7.58
2023-01-08T21:16:12.518Z,7.58
2023-01-08T21:18:59.454Z,7.55
2023-01-08T21:21:46.113Z,7.67
2023-01-08T21:24:32.764Z,7.52
2023-01-08T21:27:19.071Z,7.58
2023-01-08T21:30:06.006Z,7.53
2023-01-08T21:32:52.820Z,7.39
2023-01-08T21:35:39.461Z,7.31
2023-01-08T21:38:26.127Z,7.43
2023-01-08T21:41:35.894Z,7.49
2023-01-08T21:44:43.491Z,7.42
2023-01-08T21:47:30.171Z,7.43
2023-01-08T21:50:16.872Z,7.41
2023-01-08T21:53:21.950Z,7.50
2023-01-08T21:56:08.554Z,7.57
2023-01-08T21:58:55.242Z,7.46
2023-01-08T22:01:42.110Z,7.34
2023-01-08T22:04:28.911Z,7.31
2023-01-08T22:07:16.184Z,7.45
2023-01-08T22:10:05.215Z,7.42
2023-01-08T22:12:52.679Z,7.31
2023-01-08T22:15:39.226Z,7.32
2023-01-08T22:18:25.606Z,7.25
2023-01-08T22:21:13.344Z,7.22
2023-01-08T22:23:59.938Z,7.10
2023-01-08T22:26:48.202Z,7.15
2023-01-08T22:29:35.803Z,7.28
2023-01-08T22:32:22.842Z,7.19
2023-01-08T22:35:10.464Z,7.19
2023-01-08T22:37:56.900Z,7.21
2023-01-08T22:40:43.634Z,7.30
2023-01-08T22:43:29.948Z,7.28
2023-01-08T22:46:16.652Z,7.19
2023-01-08T22:49:04.092Z,7.12
2023-01-08T22:51:50.338Z,7.15
2023-01-08T22:54:38.006Z,7.15
2023-01-08T22:57:24.375Z,7.12
2023-01-08T23:00:11.856Z,7.13
2023-01-08T23:02:58.563Z,7.21
2023-01-08T23:05:45.264Z,7.19
2023-01-08T23:08:31.910Z,7.31
2023-01-08T23:11:20.489Z,7.35
2023-01-08T23:14:07.184Z,7.37
2023-01-08T23:16:53.617Z,7.57
2023-01-08T23:19:41.932Z,7.50
2023-01-08T23:22:32.202Z,7.39
2023-01-08T23:25:24.567Z,7.42
2023-01-08T23:28:10.859Z,7.37
2023-01-08T23:30:57.180Z,7.29
2023-01-08T23:33:43.620Z,7.21
2023-01-08T23:36:30.181Z,7.26
2023-01-08T23:39:16.928Z,7.34
2023-01-08T23:42:03.495Z,7.42
2023-01-08T23:44:49.917Z,7.29
2023-01-08T23:47:36.540Z,7.36
2023-01-08T23:50:22.740Z,7.44
2023-01-08T23:53:09.527Z,7.56
2023-01-08T23:55:56.195Z,7.51
2023-01-08T23:58:43.870Z,7.33
